createdAt,value
2022-11-14T00:01:40.504Z,20.10
2022-11-14T00:05:23.923Z,18.77
2022-11-14T00:30:11.362Z,19.83
2022-11-14T00:47:31.690Z,18.67
2022-11-14T01:04:06.678Z,20.10
2022-11-14T01:07:40.433Z,17.98
2022-11-14T01:11:25.860Z,18.50
2022-11-14T01:14:17.365Z,19.42
2022-11-14T02:49:55.600Z,17.73
2022-11-14T02:53:39.968Z,17.60
2022-11-14T03:40:01.410Z,19.75
2022-11-14T03:44:19.465Z,18.17
2022-11-14T03:47:30.943Z,17.30
2022-11-14T03:51:07.528Z,18.88
2022-11-14T03:53:53.290Z,17.38
2022-11-14T03:56:39.083Z,19.00
2022-11-14T03:59:25.091Z,17.98
2022-11-14T04:02:10.761Z,16.70
2022-11-14T04:04:56.624Z,17.52
2022-11-14T04:07:42.381Z,18.23
2022-11-14T04:10:28.081Z,16.85
2022-11-14T04:13:13.413Z,15.52
2022-11-14T04:16:01.862Z,16.85
2022-11-14T04:18:47.702Z,17.73
2022-11-14T04:21:33.224Z,16.08
2022-11-14T04:24:19.242Z,16.85
2022-11-14T04:27:05.958Z,16.88
2022-11-14T04:29:52.043Z,15.77
2022-11-14T04:32:37.921Z,17.77
2022-11-14T04:35:23.872Z,18.05
2022-11-14T04:38:10.492Z,17.42
2022-11-14T04:40:56.049Z,16.58
2022-11-14T04:43:44.565Z,18.30
2022-11-14T04:46:32.654Z,16.77
2022-11-14T04:49:18.334Z,18.27
2022-11-14T04:52:04.228Z,17.58
2022-11-14T04:54:49.923Z,17.58
2022-11-14T04:57:36.062Z,15.73
2022-11-14T05:00:21.947Z,17.50
2022-11-14T05:03:08.706Z,17.23
2022-11-14T05:06:01.745Z,17.58
2022-11-14T05:08:48.520Z,16.02
2022-11-14T05:11:34.362Z,16.38
2022-11-14T05:14:20.459Z,18.50
2022-11-14T05:17:06.443Z,15.98
2022-11-14T05:19:52.289Z,16.85
2022-11-14T05:22:37.727Z,17.20
2022-11-14T05:27:02.113Z,16.90
2022-11-14T05:28:51.029Z,17.17
2022-11-14T05:31:36.927Z,18.00
2022-11-14T05:34:22.901Z,17.35
2022-11-14T05:37:08.750Z,17.05
2022-11-14T05:39:54.563Z,18.63
2022-11-14T05:42:40.236Z,18.02
2022-11-14T05:45:25.808Z,17.63
2022-11-14T05:48:11.263Z,18.95
2022-11-14T05:50:58.083Z,19.08
2022-11-14T05:53:43.915Z,15.85
2022-11-14T05:56:55.390Z,19.33
2022-11-14T05:59:41.185Z,18.10
2022-11-14T06:02:26.655Z,18.83
2022-11-14T06:05:13.067Z,17.52
2022-11-14T06:07:59.613Z,18.23
2022-11-14T06:10:45.162Z,19.35
2022-11-14T06:13:32.195Z,18.85
2022-11-14T06:16:19.909Z,21.33
2022-11-14T06:19:06.848Z,20.40
2022-11-14T06:21:52.469Z,18.55
2022-11-14T06:24:38.152Z,19.05
2022-11-14T06:27:23.636Z,18.45
2022-11-14T06:30:10.685Z,19.48
2022-11-14T06:32:59.762Z,20.05
2022-11-14T06:35:45.488Z,19.50
2022-11-14T06:38:34.219Z,20.05
2022-11-14T06:41:22.969Z,17.27
2022-11-14T06:47:21.573Z,17.45
2022-11-14T06:50:08.556Z,18.58
2022-11-14T06:52:54.319Z,20.70
2022-11-14T06:55:40.583Z,21.30
2022-11-14T06:58:32.936Z,19.65
2022-11-14T07:01:22.746Z,18.60
2022-11-14T07:04:09.907Z,20.38
2022-11-14T07:06:56.119Z,20.48
2022-11-14T07:13:38.616Z,17.83
2022-11-14T07:16:29.559Z,21.35
2022-11-14T07:19:15.870Z,21.20
2022-11-14T07:22:01.880Z,21.13
2022-11-14T07:24:47.695Z,21.00
2022-11-14T07:27:33.901Z,20.40
2022-11-14T07:30:35.257Z,20.67
2022-11-14T07:33:21.971Z,20.08
2022-11-14T07:36:09.630Z,21.08
2022-11-14T07:38:55.585Z,19.40
2022-11-14T07:41:41.451Z,19.45
2022-11-14T07:44:27.056Z,20.30
2022-11-14T07:47:13.368Z,19.02
2022-11-14T07:49:59.076Z,20.10
2022-11-14T07:52:54.390Z,20.88
2022-11-14T07:55:40.079Z,18.77
2022-11-14T07:58:29.937Z,17.98
2022-11-14T08:01:16.096Z,15.32
2022-11-14T08:04:02.161Z,18.73
2022-11-14T08:06:48.162Z,19.27
2022-11-14T08:09:34.608Z,15.98
2022-11-14T08:12:20.218Z,18.10
2022-11-14T08:15:11.061Z,19.67
2022-11-14T08:18:01.893Z,15.77
2022-11-14T08:20:48.827Z,15.85
2022-11-14T08:23:34.582Z,17.40
2022-11-14T08:26:20.559Z,16.10
2022-11-14T08:29:06.570Z,17.27
2022-11-14T08:31:55.750Z,17.02
2022-11-14T08:34:45.516Z,14.48
2022-11-14T08:37:32.217Z,18.17
2022-11-14T08:40:18.604Z,17.83
2022-11-14T08:43:05.789Z,16.70
2022-11-14T08:45:52.061Z,16.70
2022-11-14T08:48:38.143Z,16.65
2022-11-14T08:51:27.017Z,14.18
2022-11-14T08:54:13.298Z,17.40
2022-11-14T08:56:59.338Z,16.92
2022-11-14T08:59:45.053Z,12.32
2022-11-14T09:02:32.219Z,15.02
2022-11-14T09:05:18.376Z,17.13
2022-11-14T09:08:04.680Z,16.20
2022-11-14T09:10:50.541Z,15.77
2022-11-14T09:13:36.220Z,16.17
2022-11-14T09:16:21.895Z,11.70
2022-11-14T09:19:08.179Z,15.77
2022-11-14T09:21:54.954Z,16.42
2022-11-14T09:24:40.740Z,14.95
2022-11-14T09:27:27.767Z,15.82
2022-11-14T09:30:15.581Z,15.27
2022-11-14T09:33:11.181Z,16.45
2022-11-14T09:36:05.454Z,14.55
2022-11-14T09:38:51.892Z,15.35
2022-11-14T09:42:17.479Z,15.95
2022-11-14T09:45:12.208Z,14.63
2022-11-14T09:48:13.775Z,14.50
2022-11-14T09:51:21.054Z,15.73
2022-11-14T09:54:24.344Z,14.95
2022-11-14T09:57:20.402Z,14.35
2022-11-14T10:00:25.106Z,14.88
2022-11-14T10:03:44.728Z,14.98
2022-11-14T10:06:43.843Z,13.68
2022-11-14T10:10:18.756Z,14.60
2022-11-14T10:13:39.646Z,12.80
2022-11-14T10:17:10.724Z,13.48
2022-11-14T10:20:28.317Z,12.68
2022-11-14T10:24:03.174Z,12.98
2022-11-14T10:27:03.191Z,12.40
2022-11-14T10:30:39.195Z,11.75
2022-11-14T10:34:18.017Z,11.57
2022-11-14T10:37:33.450Z,8.40
2022-11-14T10:40:29.642Z,11.25
2022-11-14T10:43:42.185Z,12.27
2022-11-14T10:46:42.185Z,12.73
2022-11-14T10:49:39.347Z,12.05
2022-11-14T10:52:43.186Z,11.77
2022-11-14T10:55:50.114Z,11.52
2022-11-14T10:58:47.772Z,10.32
2022-11-14T11:01:45.287Z,10.93
2022-11-14T11:04:37.998Z,10.20
2022-11-14T11:07:45.127Z,11.32
2022-11-14T11:10:51.956Z,10.45
2022-11-14T11:13:57.431Z,11.65
2022-11-14T11:17:21.749Z,12.13
2022-11-14T11:20:29.889Z,11.35
2022-11-14T11:24:01.840Z,10.80
2022-11-14T11:26:48.100Z,11.43
2022-11-14T11:29:34.103Z,11.80
2022-11-14T11:32:26.893Z,12.25
2022-11-14T11:35:16.904Z,11.93
2022-11-14T11:38:06.839Z,11.45
2022-11-14T11:44:48.013Z,11.65
2022-11-14T11:47:36.039Z,12.18
2022-11-14T11:50:24.874Z,11.55
2022-11-14T11:53:39.545Z,11.27
2022-11-14T11:56:55.400Z,11.70
2022-11-14T11:59:55.691Z,11.88
2022-11-14T12:02:50.043Z,11.65
2022-11-14T12:05:51.879Z,11.40
2022-11-14T12:09:18.998Z,11.43
2022-11-14T12:12:21.352Z,11.38
2022-11-14T12:15:36.833Z,11.25
2022-11-14T12:19:56.355Z,10.90
2022-11-14T12:23:29.688Z,11.30
2022-11-14T12:26:48.000Z,11.70
2022-11-14T12:52:43.892Z,11.18
2022-11-14T12:55:29.632Z,12.18
2022-11-14T12:59:04.679Z,11.75
2022-11-14T13:06:33.592Z,12.20
2022-11-14T13:09:54.016Z,11.75
2022-11-14T13:13:15.628Z,11.63
2022-11-14T13:16:22.827Z,10.82
2022-11-14T13:19:29.612Z,11.10
2022-11-14T13:23:49.268Z,10.52
2022-11-14T13:26:53.586Z,11.20
2022-11-14T13:35:31.651Z,10.80
2022-11-14T13:39:03.439Z,12.15
2022-11-14T13:42:20.811Z,11.75
2022-11-14T13:45:46.459Z,11.40
2022-11-14T13:49:42.694Z,14.07
2022-11-14T13:52:33.324Z,13.35
2022-11-14T13:56:00.309Z,13.25
2022-11-14T13:59:40.009Z,13.25
2022-11-14T14:02:56.765Z,13.77
2022-11-14T14:06:31.586Z,12.35
2022-11-14T14:10:14.171Z,14.30
2022-11-14T14:13:21.314Z,14.38
2022-11-14T14:16:37.965Z,13.90
2022-11-14T14:20:15.538Z,13.68
2022-11-14T14:23:19.993Z,13.93
2022-11-14T14:26:45.957Z,14.80
2022-11-14T14:30:00.465Z,13.27
2022-11-14T14:41:00.557Z,14.90
2022-11-14T14:44:30.260Z,14.43
2022-11-14T14:47:42.161Z,16.08
2022-11-14T14:50:34.846Z,16.65
2022-11-14T14:53:30.219Z,17.40
2022-11-14T14:56:24.774Z,16.45
2022-11-14T14:59:29.452Z,17.08
2022-11-14T15:02:20.157Z,15.82
2022-11-14T15:05:07.265Z,14.75
2022-11-14T15:08:01.989Z,15.85
2022-11-14T15:10:48.248Z,16.15
2022-11-14T15:13:35.481Z,16.83
2022-11-14T15:16:23.225Z,18.08
2022-11-14T15:19:15.864Z,15.95
2022-11-14T15:22:29.325Z,16.85
2022-11-14T15:25:21.046Z,17.85
2022-11-14T15:28:19.183Z,17.20
2022-11-14T15:31:20.580Z,18.52
2022-11-14T15:34:38.369Z,17.98
2022-11-14T15:37:27.664Z,18.23
2022-11-14T15:40:20.616Z,17.85
2022-11-14T15:44:02.211Z,18.85
2022-11-14T15:46:54.797Z,19.00
2022-11-14T15:53:07.544Z,20.20
2022-11-14T15:55:54.526Z,19.65
2022-11-14T16:05:36.440Z,21.33
2022-11-14T16:08:25.166Z,20.23
2022-11-14T16:11:12.564Z,23.17
2022-11-14T16:13:58.725Z,22.60
2022-11-14T16:16:45.425Z,21.38
2022-11-14T16:19:31.562Z,23.02
2022-11-14T16:22:18.346Z,22.23
2022-11-14T16:25:06.458Z,23.05
2022-11-14T16:27:55.009Z,20.55
2022-11-14T16:30:49.659Z,22.75
2022-11-14T16:33:35.732Z,24.67
2022-11-14T16:36:22.523Z,24.00
2022-11-14T16:39:11.616Z,23.42
2022-11-14T16:42:02.712Z,23.92
2022-11-14T16:44:50.771Z,24.33
2022-11-14T16:47:36.877Z,24.17
2022-11-14T16:50:23.304Z,24.30
2022-11-14T16:53:08.951Z,23.65
2022-11-14T16:56:03.739Z,25.65
2022-11-14T16:58:55.667Z,23.70
2022-11-14T17:01:42.782Z,25.27
2022-11-14T17:04:28.740Z,26.02
2022-11-14T17:07:21.714Z,26.60
2022-11-14T17:10:10.696Z,26.00
2022-11-14T17:12:57.140Z,25.17
2022-11-14T17:15:43.774Z,24.80
2022-11-14T17:18:35.499Z,24.98
2022-11-14T17:21:30.780Z,25.02
2022-11-14T17:24:17.331Z,25.48
2022-11-14T17:27:04.360Z,25.52
2022-11-14T17:29:51.728Z,26.67
2022-11-14T17:32:37.751Z,27.35
2022-11-14T17:35:23.359Z,27.98
2022-11-14T17:38:09.709Z,28.42
2022-11-14T17:44:25.592Z,27.30
2022-11-14T17:47:13.639Z,28.13
2022-11-14T17:50:04.546Z,27.90
2022-11-14T17:53:41.846Z,28.45
2022-11-14T17:56:28.623Z,27.23
2022-11-14T17:59:17.514Z,27.27
2022-11-14T18:02:04.037Z,27.80
2022-11-14T18:04:50.297Z,27.17
2022-11-14T18:07:36.454Z,26.65
2022-11-14T18:10:22.885Z,28.88
2022-11-14T18:13:10.318Z,28.17
2022-11-14T18:16:12.742Z,29.73
2022-11-14T18:18:59.742Z,27.30
2022-11-14T18:21:52.091Z,28.77
2022-11-14T18:24:43.571Z,29.02
2022-11-14T18:27:29.661Z,28.17
2022-11-14T18:30:39.946Z,30.65
2022-11-14T18:33:42.720Z,31.35
2022-11-14T18:37:12.015Z,34.25
2022-11-14T18:40:12.119Z,31.77
2022-11-14T19:12:06.137Z,30.45
2022-11-14T19:32:15.417Z,33.13
2022-11-14T19:42:53.363Z,36.17
2022-11-14T19:46:09.185Z,35.15
2022-11-14T19:49:00.473Z,34.58
2022-11-14T19:52:06.221Z,33.70
2022-11-14T19:54:56.624Z,35.55
2022-11-14T19:57:48.838Z,34.55
2022-11-14T20:00:43.985Z,34.73
2022-11-14T20:03:30.913Z,34.05
2022-11-14T20:06:31.309Z,33.40
2022-11-14T20:29:46.450Z,32.75
2022-11-14T20:32:32.834Z,36.38
2022-11-14T20:35:18.619Z,37.72
2022-11-14T20:38:05.935Z,39.35
2022-11-14T20:40:56.998Z,37.47
2022-11-14T20:43:44.025Z,36.20
2022-11-14T20:46:42.402Z,37.35
2022-11-14T20:49:31.414Z,37.08
2022-11-14T20:52:18.845Z,37.03
2022-11-14T20:55:11.451Z,39.58
2022-11-14T20:57:57.852Z,39.10
2022-11-14T21:00:43.856Z,40.17
2022-11-14T21:03:30.085Z,36.90
2022-11-14T21:06:17.062Z,38.25
2022-11-14T21:09:03.439Z,38.15
2022-11-14T21:11:56.751Z,36.53
2022-11-14T21:14:46.787Z,35.90
2022-11-14T21:17:32.622Z,35.85
2022-11-14T21:20:19.035Z,39.67
2022-11-14T21:23:04.716Z,36.83
2022-11-14T21:25:50.651Z,36.15
2022-11-14T21:28:40.043Z,38.92
2022-11-14T21:31:33.779Z,37.63
2022-11-14T21:34:19.875Z,37.22
2022-11-14T21:37:06.314Z,39.72
2022-11-14T21:39:51.902Z,37.25
2022-11-14T21:52:01.534Z,34.33
2022-11-14T21:54:47.160Z,35.05
2022-11-14T21:57:33.076Z,37.17
2022-11-14T22:00:19.267Z,35.10
2022-11-14T22:03:29.883Z,36.28
2022-11-14T22:06:16.321Z,39.05
2022-11-14T22:09:02.082Z,38.47
2022-11-14T22:11:48.194Z,35.33
2022-11-14T22:14:34.021Z,38.15
2022-11-14T22:17:20.084Z,39.42
2022-11-14T22:20:07.036Z,36.72
2022-11-14T22:22:55.229Z,32.53
2022-11-14T22:25:41.217Z,34.03
2022-11-14T22:28:29.191Z,33.78
2022-11-14T22:31:17.922Z,35.13
2022-11-14T22:34:03.913Z,34.90
2022-11-14T22:36:50.969Z,36.20
2022-11-14T22:39:37.426Z,37.10
2022-11-14T22:42:24.790Z,37.75
2022-11-14T22:45:11.070Z,37.00
2022-11-14T22:47:58.644Z,35.72
2022-11-14T22:50:44.749Z,32.88
2022-11-14T22:53:33.521Z,34.88
2022-11-14T22:56:23.186Z,36.05
2022-11-14T22:59:08.793Z,34.03
2022-11-14T23:01:55.719Z,35.70
2022-11-14T23:04:41.725Z,35.67
2022-11-14T23:07:28.593Z,34.75
2022-11-14T23:10:14.506Z,36.10
2022-11-14T23:13:01.000Z,33.60
2022-11-14T23:15:48.333Z,37.55
2022-11-14T23:18:34.119Z,37.28
2022-11-14T23:21:25.388Z,38.03
2022-11-14T23:24:15.290Z,35.72
2022-11-14T23:27:01.209Z,36.95
2022-11-14T23:29:46.883Z,37.10
2022-11-14T23:32:32.624Z,36.83
2022-11-14T23:35:18.789Z,36.33
2022-11-14T23:38:05.119Z,36.85
2022-11-14T23:41:01.744Z,35.70
2022-11-14T23:43:48.667Z,37.30
2022-11-14T23:46:35.126Z,35.88
2022-11-14T23:49:20.945Z,34.90
2022-11-14T23:52:07.080Z,34.42
2022-11-14T23:54:53.041Z,34.63
2022-11-14T23:57:39.142Z,34.20
